ADDS METAR Data INFO
IDs: Format: Raw Decoded Include TAF

Data at: 0104 UTC 24 Jun 2018

PAQT 240053Z AUTO 02006KT 10SM CLR 11/04 A3006 RMK AO2 SLP179 T01060044 TSNO
PAQT 232353Z AUTO VRB04KT 10SM CLR 11/04 A3006 RMK AO2 SLP179 T01110039 10111 20061 58001 TSNO
PAQT 232253Z AUTO VRB04KT 10SM CLR 09/03 A3006 RMK AO2 SLP181 T00940033 TSNO
PAQT 232153Z AUTO 03005KT 10SM CLR 09/03 A3006 RMK AO2 SLP180 T00890033 TSNO
PAQT 232053Z AUTO 04004KT 10SM CLR 08/02 A3006 RMK AO2 SLP180 T00780022 51006 TSNO
PAQT 231953Z AUTO 03004KT 10SM CLR 08/02 A3006 RMK AO2 SLP179 T00780022 TSNO
PAQT 231853Z AUTO VRB03KT 10SM CLR 07/01 A3005 RMK AO2 SLP175 T00720011 TSNO
PAQT 231753Z AUTO 36003KT 10SM CLR 06/01 A3004 RMK AO2 SLP174 T00610006 10067 20006 51006 TSNO
PAQT 231653Z AUTO 00000KT 10SM CLR 05/00 A3004 RMK AO2 SLP172 T00500000 TSNO
PAQT 231553Z AUTO 00000KT 10SM CLR 03/00 A3004 RMK AO2 SLP172 T00280000 TSNO
PAQT 231453Z AUTO 12003KT 10SM CLR 02/00 A3002 RMK AO2 SLP168 T00220000 51005 TSNO
PAQT 231353Z AUTO 02003KT 10SM CLR 02/M01 A3002 RMK AO2 SLP167 T00171006 TSNO
PAQT 231253Z AUTO 06004KT 10SM CLR 01/00 A3002 RMK AO2 SLP165 T00060000 TSNO
PAQT 231153Z AUTO 05005KT 10SM CLR 01/00 A3001 RMK AO2 SLP162 T00060000 10044 20006 53004 TSNO
PAQT 231053Z AUTO 06006KT 10SM CLR 01/00 A3000 RMK AO2 SLP161 T00060000 TSNO
PAQT 230953Z AUTO 05007KT 10SM CLR 01/00 A3000 RMK AO2 SLP159 T00060000 TSNO
PAQT 230853Z AUTO 04008KT 10SM CLR 01/00 A2999 RMK AO2 SLP158 T00110000 400671006 53005 TSNO
PAQT 230753Z AUTO 03008KT 10SM CLR 02/01 A2999 RMK AO2 SLP156 T00220006 TSNO
PAQT 230653Z AUTO 03010KT 10SM CLR 03/01 A2998 RMK AO2 SLP154 T00330011 TSNO
PAQT 230553Z AUTO 03010KT 10SM CLR 04/01 A2998 RMK AO2 SLP152 T00440011 10067 20044 55002 TSNO
PAQT 230453Z AUTO 04010KT 10SM CLR 05/02 A2998 RMK AO2 SLP151 T00500017 TSNO
PAQT 230353Z AUTO 04009KT 10SM CLR 06/02 A2998 RMK SLP153 T00560017 TSNO VIA AUTODIAL
PAQT 230253Z AUTO 03011KT 10SM CLR 06/02 A2998 RMK AO2 SLP154 T00610022 55000 TSNO
PAQT 230153Z AUTO 04010KT 10SM CLR 06/02 A2998 RMK AO2 SLP153 T00610022 TSNO
PAQT 230053Z AUTO 03009KT 10SM CLR 06/02 A2999 RMK AO2 SLP155 T00610022 TSNO
PAQT 222353Z AUTO 03010KT 10SM CLR 06/02 A2998 RMK AO2 SLP154 T00560022 10061 20011 58003 TSNO
PAQT 222253Z AUTO 02009KT 10SM FEW018 06/02 A2999 RMK AO2 SLP155 T00560017 TSNO
PAQT 222246Z AUTO 03011KT 10SM FEW018 05/02 A2999 RMK AO2 T00500022 TSNO
PAQT 222216Z AUTO 03011KT 10SM FEW007 BKN019 04/02 A2999 RMK AO2 T00440017 TSNO
PAQT 222153Z AUTO 04009KT 10SM OVC006 04/02 A2999 RMK AO2 SLP157 T00440022 TSNO
PAQT 222114Z AUTO 03009KT 10SM OVC005 03/02 A2999 RMK AO2 T00330017 TSNO
PAQT 222053Z AUTO 02010KT 10SM OVC004 03/02 A2999 RMK AO2 SLP157 T00330022 58001 TSNO
PAQT 221953Z AUTO 02008KT 8SM OVC003 03/02 A3000 RMK AO2 SLP158 T00280017 TSNO
PAQT 221853Z AUTO 02007KT 10SM OVC004 02/01 A2999 RMK AO2 SLP156 T00170011 TSNO
PAQT 221807Z AUTO 02007KT 6SM BR OVC003 01/01 A2999 RMK AO2 T00110011 TSNO
PAQT 221753Z AUTO 05008KT 2SM BR OVC003 01/01 A2999 RMK AO2 VIS 1 1/4V4 SLP157 I6001 T00110011 10011 21006 53001 TSNO
PAQT 221750Z AUTO 04006KT 2SM BR OVC003 01/01 A2999 RMK AO2 VIS 1 1/4V4 TSNO
PAQT 221720Z AUTO 04007KT 3SM BR OVC003 01/01 A2999 RMK AO2 T00110011 TSNO
PAQT 221653Z AUTO 04009KT 1 1/4SM BR OVC003 01/01 A2999 RMK AO2 SLP156 T00060006 TSNO
PAQT 221645Z AUTO 06008KT 1 3/4SM BR OVC003 01/01 A2999 RMK AO2 VIS 1V4 T00060006 TSNO
PAQT 221553Z AUTO 06008KT 10SM OVC004 00/00 A2999 RMK AO2 SLP156 T00000000 TSNO
PAQT 221522Z AUTO 05006KT 5SM BR OVC003 M01/M01 A2999 RMK AO2 T10061006 TSNO
PAQT 221512Z AUTO 05007KT 1SM BR OVC003 M01/M01 A2999 RMK AO2 T10061006 TSNO
PAQT 221453Z AUTO 05007KT 3/4SM BR OVC003 M01/M01 A2999 RMK AO2 SLP155 I3001 T10061006 55000 TSNO
PAQT 221422Z AUTO 07009KT 3/4SM BR OVC002 M01/M01 A2999 RMK AO2 T10061006 TSNO
PAQT 221414Z AUTO 04006KT 1SM BR OVC002 M01/M01 A2999 RMK AO2 VIS 1/2V2 T10061006 TSNO
PAQT 221356Z AUTO 05007KT 1 1/2SM BR OVC003 M01/M01 A2999 RMK AO2 VIS 1/2V5 T10061006 TSNO
PAQT 221353Z AUTO 04009KT 3SM BR OVC003 M01/M01 A2998 RMK AO2 SLP154 I1000 T10061006 TSNO
PAQT 221344Z AUTO 04008KT 2 1/2SM BR OVC003 M01/M01 A2998 RMK AO2 I1000 T10061006 TSNO
PAQT 221333Z AUTO 06007KT 3SM BR OVC003 M01/M01 A2999 RMK AO2 T10061006 TSNO
PAQT 221321Z AUTO 04009KT 1 1/2SM BR OVC003 M01/M01 A2999 RMK AO2 T10061006 TSNO